Time;durP1;ratioP1;P1;durP2;ratioP2;P2;SDS_P1;SDS_P2;PMS_P1;PMS_P2;Temp;Humidity;BMP_temperature;BMP_pressure;BME280_temperature;BME280_humidity;BME280_pressure;Samples;Min_cycle;Max_cycle;Signal;HPM_P1;HPM_P2
2022/04/01 00:01:19;;;;;;;3.13;1.50;;;1.10;99.90;;;;;;5130174;27;20450;-69
2022/04/01 00:03:45;;;;;;;4.28;1.80;;;1.20;99.90;;;;;;5119752;28;20035;-70
2022/04/01 00:06:11;;;;;;;5.78;1.40;;;1.30;99.90;;;;;;5131440;27;20127;-68
2022/04/01 00:08:36;;;;;;;2.65;1.33;;;1.30;99.90;;;;;;5117011;27;20055;-69
2022/04/01 00:11:02;;;;;;;5.33;1.20;;;1.20;99.90;;;;;;5114453;27;20509;-69
2022/04/01 00:13:28;;;;;;;3.47;1.30;;;1.40;99.90;;;;;;5126795;28;20867;-69
2022/04/01 00:15:53;;;;;;;2.15;1.48;;;1.40;99.90;;;;;;5134757;27;20439;-69
2022/04/01 00:18:19;;;;;;;2.92;1.67;;;1.30;99.90;;;;;;5107488;27;20079;-69
2022/04/01 00:20:45;;;;;;;3.22;1.50;;;1.30;99.90;;;;;;5140783;27;20070;-69
2022/04/01 00:23:12;;;;;;;2.55;1.38;;;1.40;99.90;;;;;;5120087;27;20157;-70
2022/04/01 00:25:39;;;;;;;3.42;1.70;;;1.40;99.90;;;;;;5101961;27;20034;-67
2022/04/01 00:28:05;;;;;;;2.95;1.30;;;1.40;99.90;;;;;;5101584;27;20103;-70
2022/04/01 00:30:33;;;;;;;;;;;1.40;99.90;;;;;;5131787;27;20046;-70
2022/04/01 00:32:59;;;;;;;3.30;1.60;;;1.50;99.90;;;;;;5108820;27;19968;-70
2022/04/01 00:35:25;;;;;;;3.05;1.40;;;1.40;99.90;;;;;;5130355;27;20041;-70
2022/04/01 00:37:52;;;;;;;3.67;1.25;;;1.30;99.90;;;;;;5118688;27;20050;-70
2022/04/01 00:40:18;;;;;;;3.40;1.48;;;1.30;99.90;;;;;;5125180;27;20478;-68
2022/04/01 00:42:45;;;;;;;4.18;1.73;;;1.30;99.90;;;;;;5120513;27;20066;-69
2022/04/01 00:45:11;;;;;;;2.78;1.60;;;1.30;99.90;;;;;;5139456;27;20043;-68
2022/04/01 00:47:38;;;;;;;3.88;1.50;;;1.40;99.90;;;;;;5111540;27;20058;-68
2022/04/01 00:50:04;;;;;;;;;;;1.40;99.90;;;;;;5121496;27;20505;-69
2022/04/01 00:52:30;;;;;;;3.25;1.40;;;1.40;99.90;;;;;;5121292;27;19976;-70
2022/04/01 00:54:56;;;;;;;4.18;2.58;;;1.30;99.90;;;;;;5099938;27;20048;-70
2022/04/01 00:57:22;;;;;;;3.05;1.55;;;1.30;99.90;;;;;;5117804;27;20478;-68
2022/04/01 00:59:48;;;;;;;2.42;1.40;;;1.40;99.90;;;;;;5120499;27;20107;-68
2022/04/01 01:02:14;;;;;;;;;;;1.40;99.90;;;;;;5133326;27;20098;-69
2022/04/01 01:04:41;;;;;;;3.25;1.38;;;1.30;99.90;;;;;;5112443;27;19927;-68
2022/04/01 01:07:06;;;;;;;;;;;1.30;99.90;;;;;;5115744;27;20053;-68
2022/04/01 01:09:32;;;;;;;3.25;1.70;;;1.40;99.90;;;;;;5114569;27;19915;-68
2022/04/01 01:11:58;;;;;;;3.28;1.35;;;1.40;99.90;;;;;;5128201;27;20482;-68
2022/04/01 01:14:27;;;;;;;3.00;1.75;;;1.40;99.90;;;;;;5117834;27;20133;-68
2022/04/01 01:16:53;;;;;;;2.90;1.30;;;1.40;99.90;;;;;;5129615;27;20118;-69
2022/04/01 01:19:20;;;;;;;;;;;1.30;99.90;;;;;;5108493;27;20039;-69
2022/04/01 01:21:49;;;;;;;2.42;1.40;;;1.40;99.90;;;;;;5116334;27;19923;-69
2022/04/01 01:24:15;;;;;;;5.05;1.60;;;1.50;99.90;;;;;;5112424;27;20043;-69
2022/04/01 01:26:43;;;;;;;4.40;1.50;;;1.50;99.90;;;;;;5127570;27;20455;-68
2022/04/01 01:29:10;;;;;;;8.07;1.75;;;1.50;99.90;;;;;;5121958;27;20091;-68
2022/04/01 01:31:36;;;;;;;;;;;1.50;99.90;;;;;;5129415;27;20111;-68
2022/04/01 01:34:02;;;;;;;6.05;1.90;;;1.50;99.90;;;;;;5148211;27;19969;-68
2022/04/01 01:36:30;;;;;;;5.72;1.25;;;1.50;99.90;;;;;;5100410;27;20486;-68
2022/04/01 01:38:56;;;;;;;3.45;1.30;;;1.60;99.90;;;;;;5120679;27;20417;-68
2022/04/01 01:41:22;;;;;;;4.93;1.63;;;1.50;99.90;;;;;;5121568;27;20042;-69
2022/04/01 01:43:48;;;;;;;3.63;1.60;;;1.60;99.90;;;;;;5145460;27;20035;-69
2022/04/01 01:46:14;;;;;;;3.85;1.50;;;1.70;99.90;;;;;;5120895;27;20526;-69
2022/04/01 01:48:40;;;;;;;;;;;1.70;99.90;;;;;;5133247;27;20042;-69
2022/04/01 01:56:39;;;;;;;5.30;1.58;;;1.60;99.90;;;;;;5115829;27;20047;-68
2022/04/01 01:59:05;;;;;;;4.32;1.50;;;1.70;99.90;;;;;;5130941;27;20082;-69
2022/04/01 02:01:32;;;;;;;3.60;1.50;;;1.80;99.90;;;;;;5099214;27;20035;-69
2022/04/01 02:04:00;;;;;;;4.47;1.63;;;1.70;99.90;;;;;;5127417;27;20101;-69
2022/04/01 02:06:26;;;;;;;4.50;2.45;;;1.80;99.90;;;;;;5128653;27;20047;-69
2022/04/01 02:08:53;;;;;;;6.53;1.47;;;1.80;99.90;;;;;;5132334;27;20035;-67
2022/04/01 02:11:20;;;;;;;5.05;1.63;;;1.80;99.90;;;;;;5116370;27;20046;-68
2022/04/01 02:13:47;;;;;;;2.85;1.30;;;1.80;99.90;;;;;;5116323;27;20106;-69
2022/04/01 02:16:14;;;;;;;3.20;1.40;;;1.80;99.90;;;;;;5122072;27;20038;-69
2022/04/01 02:18:43;;;;;;;2.03;1.30;;;1.80;99.90;;;;;;5135550;27;20046;-69
2022/04/01 02:21:15;;;;;;;4.88;1.30;;;1.80;99.90;;;;;;5129976;27;20394;-69
2022/04/01 02:23:48;;;;;;;4.53;1.60;;;1.80;99.90;;;;;;5126277;27;20046;-68
2022/04/01 02:26:14;;;;;;;4.32;1.40;;;1.80;99.90;;;;;;5125818;27;20113;-68
2022/04/01 02:28:41;;;;;;;6.25;1.60;;;1.80;99.90;;;;;;5088468;27;20035;-68
2022/04/01 02:31:08;;;;;;;4.18;1.60;;;1.90;99.90;;;;;;5118923;27;20054;-68
2022/04/01 02:33:35;;;;;;;;;;;1.90;99.90;;;;;;5127413;27;20074;-69
2022/04/01 02:36:02;;;;;;;2.85;1.50;;;1.90;99.90;;;;;;5120597;27;19960;-69
2022/04/01 02:38:30;;;;;;;2.88;1.40;;;1.90;99.90;;;;;;5122144;27;20121;-69
2022/04/01 02:40:57;;;;;;;3.40;1.30;;;1.90;99.90;;;;;;5116907;27;20549;-71
2022/04/01 02:43:23;;;;;;;4.22;1.38;;;1.90;99.90;;;;;;5112836;27;20113;-71
2022/04/01 02:45:49;;;;;;;3.00;1.40;;;1.80;99.90;;;;;;5132342;27;20060;-71
2022/04/01 02:48:16;;;;;;;2.03;1.33;;;1.90;99.90;;;;;;5115450;27;20035;-70
2022/04/01 02:50:44;;;;;;;5.25;1.60;;;1.90;99.90;;;;;;5118706;27;20043;-71
2022/04/01 02:53:11;;;;;;;3.40;1.33;;;1.80;99.90;;;;;;5123822;27;20030;-71
2022/04/01 02:55:37;;;;;;;3.80;1.30;;;1.80;99.90;;;;;;5117982;27;20439;-71
2022/04/01 02:58:06;;;;;;;5.93;1.30;;;1.80;99.90;;;;;;5124860;27;20045;-71
2022/04/01 03:00:32;;;;;;;4.63;1.60;;;1.90;99.90;;;;;;5113425;27;20497;-71
2022/04/01 03:02:58;;;;;;;5.65;1.35;;;1.90;99.90;;;;;;5102348;27;20117;-71
2022/04/01 03:05:24;;;;;;;2.95;1.42;;;1.90;99.90;;;;;;5122514;27;20123;-70
2022/04/01 03:07:50;;;;;;;4.47;1.60;;;1.90;99.90;;;;;;5119234;27;20042;-70
2022/04/01 03:10:17;;;;;;;8.32;1.48;;;1.90;99.90;;;;;;5122395;27;20138;-70
2022/04/01 03:12:43;;;;;;;3.72;1.38;;;1.90;99.90;;;;;;5127205;27;20118;-71
2022/04/01 03:15:09;;;;;;;4.88;1.30;;;1.90;99.90;;;;;;5115483;27;20165;-71
2022/04/01 03:17:35;;;;;;;6.10;1.33;;;1.90;99.90;;;;;;5117095;27;20042;-71
2022/04/01 03:20:01;;;;;;;3.22;1.38;;;1.90;99.90;;;;;;5132507;27;20059;-70
2022/04/01 03:22:27;;;;;;;2.70;1.30;;;1.90;99.90;;;;;;5105476;27;20112;-70
2022/04/01 03:24:52;;;;;;;3.50;1.25;;;1.90;99.90;;;;;;5109665;27;20042;-71
2022/04/01 03:27:18;;;;;;;4.07;1.20;;;1.90;99.90;;;;;;5122707;27;20438;-71
2022/04/01 03:29:44;;;;;;;3.92;1.40;;;1.90;99.90;;;;;;5113691;27;20335;-71
2022/04/01 03:32:10;;;;;;;3.40;1.17;;;1.90;99.90;;;;;;5143906;27;20034;-71
2022/04/01 03:34:37;;;;;;;3.03;1.23;;;1.90;99.90;;;;;;5128183;27;20382;-71
2022/04/01 03:37:05;;;;;;;4.00;1.13;;;1.90;99.90;;;;;;5117290;27;20155;-71
2022/04/01 03:39:32;;;;;;;3.58;1.38;;;1.90;99.90;;;;;;5108176;27;20047;-71
2022/04/01 03:41:59;;;;;;;2.80;1.13;;;1.90;99.90;;;;;;5129571;27;20076;-71
2022/04/01 03:44:26;;;;;;;2.63;1.10;;;2.00;99.90;;;;;;5124700;27;20385;-71
2022/04/01 03:47:10;;;;;;;2.80;1.02;;;1.90;99.90;;;;;;5113635;27;20085;-71
2022/04/01 03:49:48;;;;;;;3.72;1.20;;;1.90;99.90;;;;;;5150467;27;20043;-71
2022/04/01 03:52:15;;;;;;;3.67;1.10;;;2.10;99.90;;;;;;5124536;27;20039;-71
2022/04/01 03:54:43;;;;;;;5.70;1.40;;;2.10;99.90;;;;;;5119849;28;20455;-71
2022/04/01 03:57:12;;;;;;;2.53;1.00;;;2.10;99.90;;;;;;5114311;27;20122;-72
2022/04/01 03:59:42;;;;;;;3.22;1.23;;;2.10;99.90;;;;;;5126650;27;20114;-71
2022/04/01 04:02:12;;;;;;;3.20;1.05;;;2.20;99.90;;;;;;5133487;27;20504;-71
2022/04/01 04:04:39;;;;;;;3.45;1.13;;;2.10;99.90;;;;;;5110696;27;20047;-71
2022/04/01 04:07:09;;;;;;;5.68;1.27;;;2.10;99.90;;;;;;5104747;27;20039;-71
2022/04/01 04:09:38;;;;;;;4.75;1.30;;;2.00;99.90;;;;;;5119046;27;20048;-70
2022/04/01 04:12:06;;;;;;;4.80;1.40;;;2.00;99.90;;;;;;5121865;27;20051;-71
2022/04/01 04:14:32;;;;;;;3.47;1.20;;;2.00;99.90;;;;;;5132102;27;20486;-70
2022/04/01 04:17:05;;;;;;;5.53;1.52;;;2.00;99.90;;;;;;5129416;27;20075;-71
2022/04/01 04:19:44;;;;;;;5.88;1.30;;;2.10;99.90;;;;;;5107966;27;20039;-72
2022/04/01 04:22:15;;;;;;;4.35;0.90;;;2.20;99.90;;;;;;5104399;27;20075;-72
2022/04/01 04:25:10;;;;;;;2.97;1.13;;;2.10;99.90;;;;;;5117130;27;20078;-72
2022/04/01 04:27:40;;;;;;;4.07;1.20;;;2.10;99.90;;;;;;5137830;27;20409;-71
2022/04/01 04:30:08;;;;;;;2.92;0.80;;;2.20;99.90;;;;;;5136325;27;20050;-72
2022/04/01 04:32:38;;;;;;;4.57;1.08;;;2.20;99.90;;;;;;5136167;27;20077;-72
2022/04/01 04:35:06;;;;;;;2.45;1.08;;;2.20;99.90;;;;;;5137261;27;20043;-71
2022/04/01 04:37:35;;;;;;;2.83;1.20;;;2.30;99.90;;;;;;5130068;27;20043;-71
2022/04/01 04:40:01;;;;;;;3.60;1.30;;;2.30;99.90;;;;;;5118178;27;20041;-70
2022/04/01 04:42:28;;;;;;;2.75;1.00;;;2.20;99.90;;;;;;5132969;27;20058;-71
2022/04/01 04:44:54;;;;;;;3.90;1.40;;;2.30;99.90;;;;;;5112548;27;20448;-71
2022/04/01 04:47:32;;;;;;;3.17;1.17;;;2.20;99.90;;;;;;5152802;27;20059;-73
2022/04/01 04:49:58;;;;;;;3.90;1.10;;;2.20;99.90;;;;;;5117751;27;20104;-73
2022/04/01 04:52:32;;;;;;;3.38;1.40;;;2.30;99.90;;;;;;5085921;27;20051;-72
2022/04/01 04:55:01;;;;;;;3.38;1.33;;;2.30;99.90;;;;;;5127991;27;20494;-72
2022/04/01 04:57:28;;;;;;;2.42;1.23;;;2.30;99.90;;;;;;5130864;27;20041;-72
2022/04/01 04:59:57;;;;;;;3.42;1.33;;;2.30;99.90;;;;;;5125830;27;20440;-72
2022/04/01 05:03:06;;;;;;;3.97;1.30;;;2.30;99.90;;;;;;5128133;27;20119;-71
2022/04/01 05:05:49;;;;;;;2.50;1.30;;;2.30;99.90;;;;;;5133837;27;20043;-72
2022/04/01 05:08:54;;;;;;;3.65;1.40;;;2.30;99.90;;;;;;5111043;27;20511;-71
2022/04/01 05:11:41;;;;;;;3.30;1.20;;;2.20;99.90;;;;;;5131363;27;20035;-73
2022/04/01 05:14:26;;;;;;;4.32;1.33;;;2.20;99.90;;;;;;5114079;27;20045;-72
2022/04/01 05:17:04;;;;;;;2.25;1.30;;;2.30;99.90;;;;;;5131519;27;20074;-69
2022/04/01 05:19:36;;;;;;;3.70;1.30;;;2.30;99.90;;;;;;5148528;27;20463;-68
2022/04/01 05:22:09;;;;;;;4.47;1.90;;;2.30;99.90;;;;;;5122347;27;20111;-68
2022/04/01 05:24:50;;;;;;;4.75;1.23;;;2.30;99.90;;;;;;5116454;27;20051;-70
2022/04/01 05:27:25;;;;;;;6.40;1.30;;;2.40;99.90;;;;;;5117487;27;20039;-69
2022/04/01 05:30:13;;;;;;;3.00;1.05;;;2.40;99.90;;;;;;5121430;27;20043;-69
2022/04/01 05:32:41;;;;;;;2.70;1.20;;;2.40;99.90;;;;;;5102318;27;20805;-69
2022/04/01 05:35:08;;;;;;;3.92;1.30;;;2.30;99.90;;;;;;5109842;28;20127;-71
2022/04/01 05:37:35;;;;;;;4.72;1.33;;;2.40;99.90;;;;;;5113564;28;20039;-71
2022/04/01 05:40:07;;;;;;;;;;;2.30;99.90;;;;;;5112452;28;20493;-70
2022/04/01 05:42:33;;;;;;;2.95;1.05;;;2.30;99.90;;;;;;5124251;27;19924;-68
2022/04/01 05:45:00;;;;;;;;;;;2.30;99.90;;;;;;5123121;27;20498;-69
2022/04/01 05:47:30;;;;;;;2.85;1.08;;;2.40;99.90;;;;;;5116200;27;19998;-69
2022/04/01 05:49:58;;;;;;;4.32;1.17;;;2.40;99.90;;;;;;5129063;27;20042;-69
2022/04/01 05:52:25;;;;;;;2.95;1.20;;;2.40;99.90;;;;;;5129554;27;20529;-69
2022/04/01 05:54:51;;;;;;;3.95;1.02;;;2.40;99.90;;;;;;5130073;27;20749;-70
2022/04/01 05:57:20;;;;;;;4.03;1.25;;;2.40;99.90;;;;;;5127388;27;20074;-69
2022/04/01 05:59:46;;;;;;;3.10;1.13;;;2.50;99.90;;;;;;5125333;27;20040;-69
2022/04/01 06:02:34;;;;;;;1.15;0.80;;;2.50;99.90;;;;;;5116580;27;20039;-70
2022/04/01 06:05:09;;;;;;;;;;;2.40;99.90;;;;;;5112042;28;20397;-69
2022/04/01 06:07:49;;;;;;;3.78;1.30;;;2.50;99.90;;;;;;5095226;27;19920;-69
2022/04/01 06:10:30;;;;;;;4.22;1.60;;;2.50;99.90;;;;;;5094099;28;20047;-68
2022/04/01 06:13:17;;;;;;;5.38;1.30;;;2.50;99.90;;;;;;5098402;27;20043;-69
2022/04/01 06:16:11;;;;;;;3.38;1.08;;;2.50;99.90;;;;;;5131815;27;20130;-69
2022/04/01 06:18:52;;;;;;;2.35;1.38;;;2.40;99.90;;;;;;5121407;27;20047;-70
2022/04/01 06:21:25;;;;;;;3.85;1.25;;;2.40;99.90;;;;;;5108400;28;20109;-70
2022/04/01 06:24:31;;;;;;;3.95;1.25;;;2.50;99.90;;;;;;5110665;28;20054;-70
2022/04/01 06:27:00;;;;;;;4.43;1.17;;;2.50;99.90;;;;;;5088763;28;20047;-69
2022/04/01 06:29:39;;;;;;;3.38;1.35;;;2.60;99.90;;;;;;5102205;28;20059;-70
2022/04/01 06:32:33;;;;;;;4.43;1.08;;;2.60;99.90;;;;;;5105923;28;20406;-72
2022/04/01 06:35:15;;;;;;;4.38;1.40;;;2.60;99.90;;;;;;5101159;28;20059;-71
2022/04/01 06:37:46;;;;;;;2.55;1.10;;;2.70;99.90;;;;;;5104221;28;20127;-70
2022/04/01 06:40:14;;;;;;;2.45;1.10;;;2.70;99.90;;;;;;5102768;28;20544;-69
2022/04/01 06:42:41;;;;;;;4.57;1.35;;;2.70;99.90;;;;;;5098307;28;20046;-70
2022/04/01 06:45:10;;;;;;;3.50;1.17;;;2.70;99.90;;;;;;5106051;28;20046;-69
2022/04/01 06:47:40;;;;;;;3.55;1.42;;;2.80;99.90;;;;;;5092740;28;20043;-70
2022/04/01 06:50:06;;;;;;;4.85;1.45;;;2.80;99.90;;;;;;5096650;28;20048;-70
2022/04/01 06:52:34;;;;;;;4.28;1.25;;;2.80;99.90;;;;;;5100863;28;20496;-70
2022/04/01 06:55:00;;;;;;;2.92;1.13;;;2.90;99.90;;;;;;5103598;28;20051;-70
2022/04/01 06:57:26;;;;;;;4.07;1.00;;;2.80;99.90;;;;;;5085713;28;20047;-69
2022/04/01 06:59:52;;;;;;;2.75;1.25;;;2.90;99.90;;;;;;5097703;28;20058;-70
2022/04/01 07:02:18;;;;;;;5.05;1.35;;;2.90;99.90;;;;;;5098966;28;20036;-70
2022/04/01 07:04:43;;;;;;;3.10;1.10;;;3.00;99.90;;;;;;5099122;28;20046;-69
2022/04/01 07:07:09;;;;;;;3.38;0.90;;;2.90;99.90;;;;;;5099826;28;20031;-70
2022/04/01 07:09:38;;;;;;;2.40;0.80;;;2.90;99.90;;;;;;5102261;28;20059;-70
2022/04/01 07:12:04;;;;;;;1.98;0.70;;;2.90;99.90;;;;;;5106315;28;20058;-70
2022/04/01 07:14:33;;;;;;;2.95;0.90;;;3.00;99.90;;;;;;5089524;28;20522;-70
2022/04/01 07:16:59;;;;;;;1.85;0.95;;;3.00;99.90;;;;;;5105148;28;20130;-70
2022/04/01 07:19:25;;;;;;;1.42;0.80;;;3.00;99.90;;;;;;5105379;28;20150;-69
2022/04/01 07:21:51;;;;;;;2.15;0.80;;;2.90;99.90;;;;;;5115121;27;20062;-69
2022/04/01 07:24:17;;;;;;;4.95;1.05;;;2.90;99.90;;;;;;5117188;27;20047;-69
2022/04/01 07:26:44;;;;;;;2.05;0.80;;;3.00;99.90;;;;;;5106382;27;20035;-69
2022/04/01 07:29:10;;;;;;;3.40;0.80;;;3.00;99.90;;;;;;5129359;27;20524;-69
2022/04/01 07:34:29;;;;;;;2.05;1.13;;;3.00;99.90;;;;;;5116719;27;19915;-69
2022/04/01 07:36:54;;;;;;;1.83;0.80;;;2.90;99.90;;;;;;5116653;27;20507;-76
2022/04/01 07:39:20;;;;;;;3.35;1.00;;;2.90;99.90;;;;;;5124135;27;20296;-76
2022/04/01 07:41:46;;;;;;;2.53;1.20;;;2.90;99.90;;;;;;5115390;27;20050;-76
2022/04/01 07:44:11;;;;;;;1.60;0.87;;;2.80;99.90;;;;;;5116210;27;20494;-76
2022/04/01 07:46:37;;;;;;;2.97;0.90;;;2.90;99.90;;;;;;5126152;27;20281;-76
2022/04/01 07:49:03;;;;;;;3.50;1.20;;;2.90;99.90;;;;;;5127558;27;20069;-76
2022/04/01 07:51:30;;;;;;;2.17;1.00;;;2.90;99.90;;;;;;5101844;28;20046;-76
2022/04/01 07:53:55;;;;;;;3.67;1.23;;;2.90;99.90;;;;;;5115116;28;20040;-76
2022/04/01 07:56:21;;;;;;;3.00;1.27;;;2.90;99.90;;;;;;5120239;28;20104;-77
2022/04/01 07:58:47;;;;;;;1.98;1.20;;;2.80;99.90;;;;;;5102774;28;20047;-76
2022/04/01 08:01:12;;;;;;;3.50;1.20;;;2.70;99.90;;;;;;5123822;28;20035;-76
2022/04/01 08:03:41;;;;;;;5.68;1.23;;;2.70;99.90;;;;;;5110145;28;20044;-76
2022/04/01 08:06:07;;;;;;;3.50;1.27;;;2.70;99.90;;;;;;5123636;28;20118;-76
2022/04/01 08:08:33;;;;;;;2.97;1.10;;;2.70;99.90;;;;;;5110183;28;20153;-76
2022/04/01 08:10:58;;;;;;;2.97;1.23;;;2.80;99.90;;;;;;5101567;28;20043;-75
2022/04/01 08:13:24;;;;;;;3.20;1.17;;;2.80;99.90;;;;;;5118260;28;20043;-76
2022/04/01 08:15:50;;;;;;;2.55;1.20;;;2.90;99.90;;;;;;5083730;28;20114;-76
2022/04/01 08:18:16;;;;;;;4.47;1.50;;;2.80;99.90;;;;;;5127911;28;20442;-77
2022/04/01 08:20:42;;;;;;;2.80;1.17;;;2.80;99.90;;;;;;5114553;28;20127;-76
2022/04/01 08:23:08;;;;;;;3.25;1.25;;;2.80;99.90;;;;;;5125344;27;20050;-76
2022/04/01 08:25:33;;;;;;;1.88;1.17;;;2.70;99.90;;;;;;5131109;27;20076;-75
2022/04/01 08:27:59;;;;;;;2.83;1.10;;;2.80;99.90;;;;;;5129702;27;20042;-75
2022/04/01 08:30:24;;;;;;;3.20;1.20;;;2.80;99.90;;;;;;5129841;27;20306;-76
2022/04/01 08:32:50;;;;;;;3.10;1.52;;;3.00;99.90;;;;;;5129477;27;20761;-76
2022/04/01 08:35:18;;;;;;;3.80;1.40;;;3.00;99.90;;;;;;5127319;27;20442;-76
2022/04/01 08:37:43;;;;;;;2.92;1.40;;;3.20;99.90;;;;;;5125878;27;20292;-76
2022/04/01 08:40:10;;;;;;;2.50;1.30;;;3.20;99.90;;;;;;5120054;27;20030;-76
2022/04/01 08:42:36;;;;;;;;;;;3.10;99.90;;;;;;5108795;27;20292;-76
2022/04/01 08:45:06;;;;;;;2.67;1.63;;;3.20;99.90;;;;;;5127933;27;20281;-76
2022/04/01 08:47:34;;;;;;;2.80;1.30;;;3.10;99.90;;;;;;5107982;27;20482;-75
2022/04/01 08:50:00;;;;;;;4.13;1.58;;;3.10;99.90;;;;;;5127881;27;20382;-76
2022/04/01 08:52:26;;;;;;;2.40;1.23;;;3.10;99.90;;;;;;5129010;27;20038;-75
2022/04/01 08:54:51;;;;;;;4.93;2.33;;;3.20;99.90;;;;;;5107295;27;20334;-76
2022/04/01 08:57:18;;;;;;;4.20;1.48;;;3.20;99.90;;;;;;5126614;27;20035;-76
2022/04/01 08:59:44;;;;;;;2.10;1.30;;;3.30;99.90;;;;;;5129246;27;20103;-76
2022/04/01 09:02:10;;;;;;;2.55;1.27;;;3.40;99.90;;;;;;5129264;27;20035;-76
2022/04/01 09:04:39;;;;;;;3.45;1.45;;;3.40;99.90;;;;;;5106878;27;20315;-76
2022/04/01 09:07:13;;;;;;;1.95;1.20;;;3.40;99.90;;;;;;5123698;27;20039;-76
2022/04/01 09:09:39;;;;;;;4.07;1.50;;;3.50;99.90;;;;;;5126959;27;20041;-76
2022/04/01 09:12:13;;;;;;;3.50;1.60;;;3.50;99.90;;;;;;5122986;27;20042;-76
2022/04/01 09:14:41;;;;;;;3.45;1.50;;;3.60;99.90;;;;;;5109294;27;20082;-76
2022/04/01 09:17:08;;;;;;;2.88;1.27;;;3.60;99.90;;;;;;5125699;27;20049;-76
2022/04/01 09:19:35;;;;;;;2.42;1.60;;;3.60;99.90;;;;;;5122471;27;20505;-75
2022/04/01 09:22:21;;;;;;;2.65;1.67;;;3.60;99.90;;;;;;5103775;27;20055;-76
2022/04/01 09:25:07;;;;;;;3.00;1.60;;;3.60;99.90;;;;;;5125180;27;20055;-75
2022/04/01 09:27:46;;;;;;;2.90;1.52;;;3.60;99.90;;;;;;5118422;27;20039;-74
2022/04/01 09:30:17;;;;;;;2.55;1.55;;;3.70;99.90;;;;;;5120290;27;20093;-75
2022/04/01 09:32:49;;;;;;;2.88;1.60;;;3.80;99.90;;;;;;5123402;27;20401;-77
2022/04/01 09:35:16;;;;;;;2.83;1.95;;;3.90;99.90;;;;;;5128304;27;20096;-76
2022/04/01 09:37:48;;;;;;;4.22;1.75;;;4.00;99.90;;;;;;5129691;27;20035;-76
2022/04/01 09:40:17;;;;;;;4.15;1.50;;;3.90;99.90;;;;;;5122239;27;20114;-77
2022/04/01 09:42:48;;;;;;;2.63;1.40;;;3.90;99.90;;;;;;5117535;27;20036;-77
2022/04/01 09:45:18;;;;;;;3.90;1.40;;;4.00;99.90;;;;;;5124862;27;20035;-77
2022/04/01 09:47:45;;;;;;;3.45;1.38;;;4.10;99.90;;;;;;5108848;27;20478;-76
2022/04/01 09:50:15;;;;;;;4.47;1.70;;;4.10;99.90;;;;;;5131456;27;20047;-75
2022/04/01 09:52:41;;;;;;;4.07;1.35;;;4.20;99.90;;;;;;5130184;27;20035;-76
2022/04/01 09:55:08;;;;;;;3.85;1.30;;;4.20;99.90;;;;;;5123236;27;20042;-76
2022/04/01 09:57:34;;;;;;;3.13;1.20;;;4.20;99.90;;;;;;5116401;27;20522;-76
2022/04/01 10:00:00;;;;;;;3.75;1.33;;;4.30;99.90;;;;;;5124085;27;20065;-76
2022/04/01 10:02:26;;;;;;;2.38;1.48;;;4.40;99.90;;;;;;5097297;28;20035;-77
2022/04/01 10:04:54;;;;;;;3.20;1.40;;;4.60;99.90;;;;;;5118350;27;20061;-76
2022/04/01 10:07:22;;;;;;;2.20;1.45;;;4.70;99.90;;;;;;5106594;27;20394;-77
2022/04/01 10:09:50;;;;;;;3.58;1.58;;;4.70;99.90;;;;;;5128156;27;20046;-76
2022/04/01 10:12:18;;;;;;;3.97;1.45;;;4.70;99.90;;;;;;5122200;27;20553;-76
2022/04/01 10:14:45;;;;;;;3.45;1.50;;;4.80;99.90;;;;;;5124572;27;20265;-73
2022/04/01 10:17:14;;;;;;;3.25;1.60;;;4.80;99.90;;;;;;5120874;27;20066;-74
2022/04/01 10:19:46;;;;;;;5.70;1.90;;;4.90;99.90;;;;;;5110156;27;20035;-75
2022/04/01 10:22:16;;;;;;;7.03;1.70;;;5.10;99.90;;;;;;5092926;28;20099;-75
2022/04/01 10:24:54;;;;;;;4.13;1.48;;;5.20;99.90;;;;;;5105274;28;20081;-75
2022/04/01 10:27:47;;;;;;;3.88;1.70;;;5.50;99.90;;;;;;5086252;28;20383;-75
2022/04/01 10:30:16;;;;;;;2.40;1.60;;;5.50;99.90;;;;;;5108753;28;20040;-75
2022/04/01 10:32:43;;;;;;;4.43;1.40;;;5.60;99.90;;;;;;5111201;28;20471;-76
2022/04/01 10:35:30;;;;;;;3.13;1.75;;;5.30;99.90;;;;;;5110921;28;20044;-75
2022/04/01 10:38:16;;;;;;;2.80;1.40;;;5.40;99.90;;;;;;5106397;28;20438;-75
2022/04/01 10:40:49;;;;;;;2.65;1.58;;;5.50;99.90;;;;;;5105418;28;20083;-75
2022/04/01 10:43:20;;;;;;;6.03;1.73;;;5.60;99.90;;;;;;5104672;28;20479;-75
2022/04/01 10:46:06;;;;;;;3.13;1.80;;;5.70;99.90;;;;;;5105770;28;20048;-76
2022/04/01 10:51:37;;;;;;;4.95;1.50;;;5.90;99.90;;;;;;5104396;28;20112;-76
2022/04/01 10:54:23;;;;;;;2.13;1.30;;;6.00;99.90;;;;;;5105000;28;20412;-76
2022/04/01 10:57:01;;;;;;;3.05;1.35;;;6.00;99.90;;;;;;5099657;28;20040;-76
2022/04/01 10:59:37;;;;;;;3.75;1.50;;;6.00;99.90;;;;;;5106759;28;20108;-76
2022/04/01 11:02:05;;;;;;;3.45;1.60;;;6.10;99.90;;;;;;5102255;28;20036;-75
2022/04/01 11:04:42;;;;;;;3.20;1.80;;;5.90;99.90;;;;;;5108589;28;20113;-76
2022/04/01 11:07:33;;;;;;;2.97;1.65;;;5.80;99.90;;;;;;5107187;28;20093;-76
2022/04/01 11:10:25;;;;;;;3.40;1.70;;;5.70;99.90;;;;;;5087452;28;20043;-75
2022/04/01 11:12:52;;;;;;;2.83;1.40;;;5.70;99.90;;;;;;5098465;28;20060;-77
2022/04/01 11:15:24;;;;;;;2.10;1.58;;;5.70;99.90;;;;;;5105061;28;20031;-77
2022/04/01 11:17:57;;;;;;;3.35;1.80;;;5.70;99.90;;;;;;5107207;28;20043;-79
2022/04/01 11:20:29;;;;;;;4.25;2.00;;;5.80;99.90;;;;;;5106435;28;20039;-79
2022/04/01 11:22:56;;;;;;;3.63;1.67;;;6.00;99.90;;;;;;5113745;27;20394;-78
2022/04/01 11:25:22;;;;;;;2.28;1.40;;;6.00;99.90;;;;;;5094726;28;20042;-78
2022/04/01 11:28:03;;;;;;;2.07;1.53;;;6.00;99.90;;;;;;5110345;28;20403;-77
2022/04/01 11:30:33;;;;;;;2.22;1.50;;;6.10;99.90;;;;;;5123503;27;20722;-78
2022/04/01 11:33:20;;;;;;;4.03;1.80;;;6.10;99.90;;;;;;5130511;27;20047;-78
2022/04/01 11:35:51;;;;;;;2.87;1.40;;;6.00;99.90;;;;;;5130835;27;20045;-77
2022/04/01 11:38:19;;;;;;;3.63;1.80;;;6.20;99.90;;;;;;5120506;27;20039;-77
2022/04/01 11:40:51;;;;;;;2.42;1.48;;;6.40;99.90;;;;;;5126763;27;20122;-77
2022/04/01 11:43:19;;;;;;;1.60;1.15;;;6.60;99.90;;;;;;5129062;27;20043;-78
2022/04/01 11:46:04;;;;;;;2.35;1.35;;;6.70;99.90;;;;;;5101175;27;20070;-76
2022/04/01 11:48:39;;;;;;;2.15;0.75;;;6.70;98.00;;;;;;5118748;27;20039;-74
2022/04/01 11:51:15;;;;;;;2.22;1.17;;;6.60;94.00;;;;;;5104753;27;20046;-76
2022/04/01 11:53:56;;;;;;;2.90;1.08;;;6.50;93.20;;;;;;5116528;27;20103;-78
2022/04/01 11:56:25;;;;;;;2.20;0.80;;;6.40;92.60;;;;;;5100470;28;20047;-78
2022/04/01 11:58:55;;;;;;;2.88;1.08;;;6.40;91.90;;;;;;5108742;28;20180;-77
2022/04/01 12:02:01;;;;;;;3.17;1.10;;;6.40;92.70;;;;;;5125550;28;20050;-76
2022/04/01 12:04:38;;;;;;;3.55;1.23;;;6.30;92.20;;;;;;5126971;28;20054;-76
2022/04/01 12:09:58;;;;;;;3.17;1.20;;;6.20;92.80;;;;;;5122379;28;20100;-76
2022/04/01 12:12:25;;;;;;;4.95;1.00;;;6.10;93.90;;;;;;5109235;28;20039;-77
2022/04/01 12:14:55;;;;;;;2.38;1.15;;;6.00;94.80;;;;;;5109846;28;20039;-78
2022/04/01 12:17:21;;;;;;;3.67;1.10;;;5.90;94.00;;;;;;5128943;28;20146;-77
2022/04/01 12:19:48;;;;;;;2.50;1.30;;;6.00;94.50;;;;;;5127316;27;20121;-77
2022/04/01 12:22:13;;;;;;;3.42;1.30;;;5.90;94.40;;;;;;5089334;28;20407;-70
2022/04/01 12:24:39;;;;;;;3.95;1.50;;;5.70;94.80;;;;;;5110120;28;20115;-77
2022/04/01 12:27:06;;;;;;;4.22;1.20;;;5.80;95.40;;;;;;5115245;28;20043;-78
2022/04/01 12:29:32;;;;;;;3.22;1.30;;;5.70;94.60;;;;;;5120573;27;20078;-76
2022/04/01 12:32:02;;;;;;;5.60;1.42;;;5.70;96.70;;;;;;5108489;28;20040;-77
2022/04/01 12:34:28;;;;;;;3.00;1.45;;;5.60;97.80;;;;;;5109865;28;20093;-75
2022/04/01 12:36:59;;;;;;;4.53;1.50;;;5.40;98.30;;;;;;5121599;27;20898;-77
2022/04/01 12:39:26;;;;;;;4.15;1.30;;;5.30;98.90;;;;;;5110481;28;20110;-77
2022/04/01 12:42:00;;;;;;;3.97;1.40;;;5.40;98.90;;;;;;5107195;28;20570;-79
2022/04/01 12:44:31;;;;;;;2.65;1.20;;;5.50;99.30;;;;;;5103779;28;20035;-77
2022/04/01 12:47:00;;;;;;;3.17;1.20;;;5.60;99.20;;;;;;5108253;28;20055;-76
2022/04/01 12:49:27;;;;;;;2.53;1.40;;;5.70;98.10;;;;;;5107668;28;20486;-76
2022/04/01 12:52:05;;;;;;;2.92;1.40;;;5.80;98.70;;;;;;5105046;28;20051;-76
2022/04/01 12:54:34;;;;;;;3.63;1.15;;;5.80;98.80;;;;;;5102216;28;20040;-76
2022/04/01 12:57:02;;;;;;;2.28;1.20;;;5.70;98.30;;;;;;5114860;27;20123;-78
2022/04/01 12:59:43;;;;;;;2.63;1.30;;;5.70;98.30;;;;;;5110012;28;20374;-76
2022/04/01 13:02:13;;;;;;;2.53;1.23;;;5.80;97.20;;;;;;5109739;28;20576;-76
2022/04/01 13:04:48;;;;;;;2.90;1.38;;;5.80;98.00;;;;;;5110760;28;20055;-77
2022/04/01 13:07:34;;;;;;;3.28;1.38;;;5.90;97.30;;;;;;5104031;28;20046;-76
2022/04/01 13:10:06;;;;;;;1.63;1.08;;;6.00;96.50;;;;;;5104665;27;20032;-77
2022/04/01 13:12:32;;;;;;;2.78;1.20;;;6.10;95.80;;;;;;5089648;28;20486;-77
2022/04/01 13:15:08;;;;;;;2.00;1.00;;;5.90;94.20;;;;;;5110103;28;20044;-78
2022/04/01 13:17:55;;;;;;;3.38;1.05;;;6.00;94.50;;;;;;5082182;28;20285;-77
2022/04/01 13:20:23;;;;;;;2.47;1.10;;;5.90;94.50;;;;;;5103813;28;20047;-77
2022/04/01 13:22:49;;;;;;;1.83;0.90;;;5.90;94.20;;;;;;5137085;27;20111;-77
2022/04/01 13:25:18;;;;;;;1.55;0.90;;;6.00;94.30;;;;;;5109406;27;20054;-76
2022/04/01 13:27:46;;;;;;;3.67;0.95;;;6.10;93.80;;;;;;5114685;27;20041;-77
2022/04/01 13:30:13;;;;;;;3.47;1.00;;;6.20;93.30;;;;;;5126944;27;20087;-77